createdAt,value
2018-12-22T00:00:44.070Z,6.78
2018-12-22T00:04:03.842Z,6.77
2018-12-22T00:07:10.686Z,6.74
2018-12-22T00:10:17.334Z,6.74
2018-12-22T00:13:23.999Z,6.71
2018-12-22T00:16:30.707Z,6.70
2018-12-22T00:19:37.455Z,6.70
2018-12-22T00:22:44.522Z,6.68
2018-12-22T00:25:51.310Z,6.67
2018-12-22T00:28:57.938Z,6.68
2018-12-22T00:32:04.714Z,6.65
2018-12-22T00:35:11.476Z,6.64
2018-12-22T00:38:30.622Z,6.65
2018-12-22T00:41:37.326Z,6.63
2018-12-22T00:44:44.382Z,6.62
2018-12-22T00:48:03.325Z,6.60
2018-12-22T00:51:10.316Z,6.58
2018-12-22T00:54:22.677Z,6.57
2018-12-22T00:57:29.343Z,6.56
2018-12-22T01:00:36.343Z,6.57
2018-12-22T01:03:55.233Z,6.56
2018-12-22T01:07:01.867Z,6.62
2018-12-22T01:10:21.238Z,6.57
2018-12-22T01:13:40.705Z,6.53
2018-12-22T01:16:47.507Z,6.53
2018-12-22T01:19:54.223Z,6.52
2018-12-22T01:23:13.374Z,6.49
2018-12-22T01:26:20.047Z,6.50
2018-12-22T01:29:27.145Z,6.47
2018-12-22T01:32:46.465Z,6.47
2018-12-22T01:35:53.361Z,6.46
2018-12-22T01:39:00.133Z,6.48
2018-12-22T01:42:07.055Z,6.45
2018-12-22T01:45:30.965Z,6.44
2018-12-22T01:48:37.721Z,6.44
2018-12-22T01:51:44.474Z,6.44
2018-12-22T01:55:04.417Z,6.42
2018-12-22T01:58:23.963Z,6.43
2018-12-22T02:01:43.369Z,6.40
2018-12-22T02:04:56.263Z,6.39
2018-12-22T02:08:16.522Z,6.38
2018-12-22T02:11:23.119Z,6.37
2018-12-22T02:14:39.146Z,6.36
2018-12-22T02:17:45.917Z,6.35
2018-12-22T02:20:52.586Z,6.33
2018-12-22T02:23:59.306Z,6.32
2018-12-22T02:27:05.981Z,6.31
2018-12-22T02:30:12.605Z,6.31
2018-12-22T02:33:31.456Z,6.30
2018-12-22T02:36:38.553Z,6.29
2018-12-22T02:39:45.440Z,6.28
2018-12-22T02:42:52.379Z,6.25
2018-12-22T02:46:07.821Z,6.26
2018-12-22T02:49:14.462Z,6.23
2018-12-22T02:52:21.190Z,6.21
2018-12-22T02:55:27.946Z,6.20
2018-12-22T02:58:34.630Z,6.18
2018-12-22T03:01:41.257Z,6.17
2018-12-22T03:04:47.906Z,6.18
2018-12-22T03:07:54.646Z,6.17
2018-12-22T03:11:01.703Z,6.16
2018-12-22T03:14:16.975Z,6.15
2018-12-22T03:17:23.781Z,6.13
2018-12-22T03:20:42.902Z,6.13
2018-12-22T03:23:49.641Z,6.13
2018-12-22T03:26:56.291Z,6.12
2018-12-22T03:30:03.351Z,6.11
2018-12-22T03:33:10.019Z,6.11
2018-12-22T03:36:16.908Z,6.10
2018-12-22T03:39:23.834Z,6.09
2018-12-22T03:42:45.832Z,6.09
2018-12-22T03:45:52.513Z,6.11
2018-12-22T03:48:59.427Z,6.09
2018-12-22T03:52:18.649Z,6.08
2018-12-22T03:55:25.931Z,6.08
2018-12-22T03:58:32.828Z,6.07
2018-12-22T04:01:39.714Z,6.07
2018-12-22T04:04:58.557Z,6.06
2018-12-22T04:08:05.323Z,6.05
2018-12-22T04:11:12.923Z,6.05
2018-12-22T04:14:19.564Z,6.05
2018-12-22T04:17:38.865Z,6.05
2018-12-22T04:21:00.358Z,6.03
2018-12-22T04:24:07.042Z,6.02
2018-12-22T04:27:14.250Z,6.02
2018-12-22T04:30:20.934Z,6.02
2018-12-22T04:33:27.615Z,6.02
2018-12-22T04:36:34.362Z,6.01
2018-12-22T04:39:49.728Z,6.00
2018-12-22T04:42:56.309Z,6.00
2018-12-22T04:49:08.542Z,6.00
2018-12-22T04:52:15.214Z,5.98
2018-12-22T04:55:34.026Z,5.99
2018-12-22T04:58:40.760Z,5.98
2018-12-22T05:01:59.495Z,5.97
2018-12-22T05:05:07.958Z,5.98
2018-12-22T05:08:14.620Z,5.95
2018-12-22T05:11:33.774Z,5.92
2018-12-22T05:14:42.574Z,5.92
2018-12-22T05:18:04.546Z,5.91
2018-12-22T05:21:11.522Z,5.90
2018-12-22T05:24:18.174Z,5.89
2018-12-22T05:27:25.021Z,5.87
2018-12-22T05:30:49.546Z,5.89
2018-12-22T05:33:56.210Z,5.85
2018-12-22T05:37:02.996Z,5.81
2018-12-22T05:40:09.699Z,5.78
2018-12-22T05:43:16.330Z,5.78
2018-12-22T05:46:24.198Z,5.77
2018-12-22T05:49:30.841Z,5.77
2018-12-22T05:52:37.602Z,5.74
2018-12-22T05:55:44.456Z,5.74
2018-12-22T05:59:03.580Z,5.70
2018-12-22T06:02:10.323Z,5.67
2018-12-22T06:05:17.095Z,5.66
2018-12-22T06:08:36.473Z,5.65
2018-12-22T06:11:43.119Z,5.64
2018-12-22T06:14:49.758Z,5.63
2018-12-22T06:18:08.804Z,5.62
2018-12-22T06:21:15.529Z,5.59
2018-12-22T06:24:22.306Z,5.59
2018-12-22T06:27:41.562Z,5.59
2018-12-22T06:30:48.438Z,5.58
2018-12-22T06:33:55.262Z,5.58
2018-12-22T06:37:14.177Z,5.57
2018-12-22T06:40:21.019Z,5.56
2018-12-22T06:43:27.790Z,5.54
2018-12-22T06:46:47.226Z,5.55
2018-12-22T06:49:53.880Z,5.53
2018-12-22T06:53:00.654Z,5.53
2018-12-22T06:56:19.607Z,5.53
2018-12-22T06:59:26.385Z,5.53
2018-12-22T07:02:33.403Z,5.53
2018-12-22T07:05:40.198Z,5.52
2018-12-22T07:08:47.454Z,5.50
2018-12-22T07:12:07.638Z,5.51
2018-12-22T07:15:14.304Z,5.48
2018-12-22T07:18:23.048Z,5.50
2018-12-22T07:21:41.954Z,5.51
2018-12-22T07:24:48.677Z,5.47
2018-12-22T07:27:55.668Z,5.49
2018-12-22T07:31:17.082Z,5.45
2018-12-22T07:34:23.842Z,5.43
2018-12-22T07:37:30.722Z,5.41
2018-12-22T07:40:37.844Z,5.38
2018-12-22T07:43:44.606Z,5.35
2018-12-22T07:47:04.122Z,5.33
2018-12-22T07:50:11.371Z,5.31
2018-12-22T07:53:18.777Z,5.28
2018-12-22T07:56:33.468Z,5.25
2018-12-22T07:59:40.919Z,5.26
2018-12-22T08:02:52.554Z,5.22
2018-12-22T08:06:02.954Z,5.21
2018-12-22T08:09:14.599Z,5.20
2018-12-22T08:12:29.426Z,5.17
2018-12-22T08:19:16.006Z,5.18
2018-12-22T08:22:22.751Z,5.17
2018-12-22T08:25:31.970Z,5.15
2018-12-22T08:28:56.896Z,5.15
2018-12-22T08:32:08.988Z,5.14
2018-12-22T08:35:15.782Z,5.15
2018-12-22T08:38:22.702Z,5.15
2018-12-22T08:41:31.589Z,5.17
2018-12-22T08:48:36.904Z,5.15
2018-12-22T08:51:58.087Z,5.17
2018-12-22T08:55:05.952Z,5.20
2018-12-22T08:58:13.454Z,5.20
2018-12-22T09:01:20.270Z,5.22
2018-12-22T09:04:26.870Z,5.23
2018-12-22T09:11:12.161Z,5.26
2018-12-22T09:14:19.855Z,5.28
2018-12-22T09:17:29.817Z,5.29
2018-12-22T09:20:39.219Z,5.31
2018-12-22T09:23:51.739Z,5.33
2018-12-22T09:30:37.656Z,5.37
2018-12-22T09:33:44.435Z,5.40
2018-12-22T09:36:51.110Z,5.42
2018-12-22T09:40:16.024Z,5.43
2018-12-22T09:43:22.742Z,5.46
2018-12-22T09:46:30.202Z,5.47
2018-12-22T09:49:36.173Z,5.48
2018-12-22T09:52:42.854Z,5.49
2018-12-22T09:56:01.927Z,5.51
2018-12-22T09:59:08.618Z,5.51
2018-12-22T10:02:15.428Z,5.52
2018-12-22T10:05:44.350Z,5.53
2018-12-22T10:08:51.814Z,5.56
2018-12-22T10:11:58.730Z,5.57
2018-12-22T10:15:17.610Z,5.58
2018-12-22T10:18:24.358Z,5.59
2018-12-22T10:21:31.204Z,5.58
2018-12-22T10:24:50.344Z,5.59
2018-12-22T10:27:57.079Z,5.60
2018-12-22T10:31:03.769Z,5.61
2018-12-22T10:34:23.217Z,5.62
2018-12-22T10:37:37.855Z,5.60
2018-12-22T10:41:08.231Z,5.60
2018-12-22T10:44:20.102Z,5.59
2018-12-22T10:51:04.911Z,5.59
2018-12-22T10:54:11.567Z,5.57
2018-12-22T10:57:18.231Z,5.59
2018-12-22T11:00:37.366Z,5.59
2018-12-22T11:03:44.136Z,5.58
2018-12-22T11:06:50.978Z,5.57
2018-12-22T11:10:21.433Z,5.57
2018-12-22T11:13:29.198Z,5.58
2018-12-22T11:16:48.311Z,5.60
2018-12-22T11:19:54.983Z,5.61
2018-12-22T11:23:20.397Z,5.60
2018-12-22T11:26:24.505Z,5.61
2018-12-22T11:29:31.177Z,5.63
2018-12-22T11:32:50.422Z,5.64
2018-12-22T11:35:57.150Z,5.67
2018-12-22T11:39:07.167Z,5.69
2018-12-22T11:42:23.442Z,5.70
2018-12-22T11:45:30.434Z,5.73
2018-12-22T11:49:15.431Z,5.75
2018-12-22T11:52:22.091Z,5.77
2018-12-22T11:55:28.745Z,5.79
2018-12-22T11:58:48.247Z,5.79
2018-12-22T12:01:54.912Z,5.83
2018-12-22T12:05:02.228Z,5.84
2018-12-22T12:08:09.197Z,5.86
2018-12-22T12:11:16.262Z,5.87
2018-12-22T12:14:23.059Z,5.89
2018-12-22T12:18:01.774Z,5.90
2018-12-22T12:21:08.459Z,5.91
2018-12-22T12:24:15.742Z,5.93
2018-12-22T12:27:21.780Z,5.94
2018-12-22T12:30:41.302Z,5.96
2018-12-22T12:33:47.941Z,5.97
2018-12-22T12:37:08.785Z,5.98
2018-12-22T12:40:15.517Z,5.99
2018-12-22T12:43:22.237Z,6.00
2018-12-22T12:46:35.460Z,6.02
2018-12-22T12:49:42.352Z,6.02
2018-12-22T12:52:49.015Z,6.03
2018-12-22T12:56:04.814Z,6.04
2018-12-22T12:59:11.466Z,6.05
2018-12-22T13:02:18.240Z,6.05
2018-12-22T13:05:24.478Z,6.06
2018-12-22T13:08:44.316Z,6.07
2018-12-22T13:11:52.882Z,6.07
2018-12-22T13:14:59.978Z,6.08
2018-12-22T13:18:06.738Z,6.07
2018-12-22T13:21:26.070Z,6.08
2018-12-22T13:24:32.854Z,6.10
2018-12-22T13:27:40.047Z,6.09
2018-12-22T13:30:47.217Z,6.10
2018-12-22T13:33:53.891Z,6.11
2018-12-22T13:37:18.686Z,6.11
2018-12-22T13:40:25.593Z,6.13
2018-12-22T13:43:32.268Z,6.14
2018-12-22T13:46:39.038Z,6.15
2018-12-22T13:49:46.138Z,6.16
2018-12-22T13:53:07.990Z,6.15
2018-12-22T13:56:14.674Z,6.15
2018-12-22T13:59:21.451Z,6.15
2018-12-22T14:02:28.926Z,6.16
2018-12-22T14:05:35.950Z,6.16
2018-12-22T14:08:41.880Z,6.16
2018-12-22T14:11:48.540Z,6.17
2018-12-22T14:15:10.988Z,6.17
2018-12-22T14:18:23.814Z,6.17
2018-12-22T14:21:30.811Z,6.17
2018-12-22T14:24:51.689Z,6.17
2018-12-22T14:27:58.374Z,6.16
2018-12-22T14:31:05.542Z,6.17
2018-12-22T14:34:18.446Z,6.17
2018-12-22T14:37:25.104Z,6.17
2018-12-22T14:40:31.806Z,6.16
2018-12-22T14:43:38.768Z,6.16
2018-12-22T14:46:57.788Z,6.17
2018-12-22T14:50:05.538Z,6.16
2018-12-22T14:53:12.270Z,6.15
2018-12-22T14:56:20.081Z,6.15
2018-12-22T14:59:39.786Z,6.15
2018-12-22T15:02:46.462Z,6.15
2018-12-22T15:05:53.134Z,6.14
2018-12-22T15:08:59.070Z,6.14
2018-12-22T15:12:05.731Z,6.13
2018-12-22T15:15:13.229Z,6.12
2018-12-22T15:18:20.470Z,6.13
2018-12-22T15:21:27.544Z,6.12
2018-12-22T15:24:34.334Z,6.11
2018-12-22T15:27:41.033Z,6.11
2018-12-22T15:30:47.931Z,6.11
2018-12-22T15:33:55.111Z,6.11
2018-12-22T15:37:02.186Z,6.12
2018-12-22T15:40:10.213Z,6.11
2018-12-22T15:43:16.895Z,6.08
2018-12-22T15:46:23.658Z,6.09
2018-12-22T15:49:42.548Z,6.07
2018-12-22T15:52:49.276Z,6.07
2018-12-22T15:55:55.937Z,6.07
2018-12-22T15:59:02.626Z,6.06
2018-12-22T16:02:09.378Z,6.06
2018-12-22T16:05:16.149Z,6.06
2018-12-22T16:08:35.295Z,6.04
2018-12-22T16:11:41.939Z,6.02
2018-12-22T16:14:57.245Z,6.02
2018-12-22T16:18:04.119Z,6.02
2018-12-22T16:21:10.778Z,6.01
2018-12-22T16:24:29.913Z,5.99
2018-12-22T16:27:36.580Z,5.99
2018-12-22T16:30:57.815Z,5.98
2018-12-22T16:34:16.879Z,5.98
2018-12-22T16:37:23.781Z,5.96
2018-12-22T16:40:30.438Z,5.96
2018-12-22T16:43:51.578Z,5.97
2018-12-22T16:46:58.474Z,5.94
2018-12-22T16:50:07.814Z,5.95
2018-12-22T16:53:14.559Z,5.95
2018-12-22T16:56:21.210Z,5.93
2018-12-22T16:59:40.294Z,5.93
2018-12-22T17:03:10.728Z,5.92
2018-12-22T17:06:14.872Z,5.91
2018-12-22T17:09:21.858Z,5.91
2018-12-22T17:12:37.513Z,5.87
2018-12-22T17:15:51.469Z,5.83
2018-12-22T17:18:58.386Z,5.81
2018-12-22T17:22:18.037Z,5.79
2018-12-22T17:25:31.694Z,5.76
2018-12-22T17:28:38.346Z,5.76
2018-12-22T17:31:58.394Z,5.73
2018-12-22T17:35:15.270Z,5.73
2018-12-22T17:38:21.516Z,5.69
2018-12-22T17:41:42.607Z,5.68
2018-12-22T17:44:49.363Z,5.68
2018-12-22T17:47:56.092Z,5.66
2018-12-22T17:51:04.030Z,5.66
2018-12-22T17:54:10.670Z,5.64
2018-12-22T17:57:17.419Z,5.64
2018-12-22T18:00:24.710Z,5.65
2018-12-22T18:03:35.126Z,5.62
2018-12-22T18:06:53.965Z,5.62
2018-12-22T18:10:01.398Z,5.62
2018-12-22T18:13:08.053Z,5.62
2018-12-22T18:16:14.917Z,5.61
2018-12-22T18:19:35.870Z,5.60
2018-12-22T18:22:42.581Z,5.59
2018-12-22T18:25:49.561Z,5.58
2018-12-22T18:29:10.645Z,5.58
2018-12-22T18:32:17.398Z,5.57
2018-12-22T18:35:24.175Z,5.56
2018-12-22T18:38:43.281Z,5.54
2018-12-22T18:41:49.975Z,5.54
2018-12-22T18:44:56.793Z,5.53
2018-12-22T18:48:15.969Z,5.53
2018-12-22T18:51:22.702Z,5.52
2018-12-22T18:54:29.454Z,5.52
2018-12-22T18:57:36.518Z,5.50
2018-12-22T19:00:43.291Z,5.50
2018-12-22T19:03:50.283Z,5.50
2018-12-22T19:06:56.942Z,5.49
2018-12-22T19:10:20.849Z,5.49
2018-12-22T19:13:28.071Z,5.48
2018-12-22T19:16:34.764Z,5.46
2018-12-22T19:19:41.690Z,5.47
2018-12-22T19:22:48.711Z,5.46
2018-12-22T19:26:08.267Z,5.46
2018-12-22T19:29:15.150Z,5.45
2018-12-22T19:32:21.807Z,5.45
2018-12-22T19:35:28.454Z,5.43
2018-12-22T19:38:47.737Z,5.43
2018-12-22T19:41:54.404Z,5.43
2018-12-22T19:45:13.249Z,5.41
2018-12-22T19:48:19.917Z,5.44
2018-12-22T19:51:38.717Z,5.41
2018-12-22T19:54:45.716Z,5.42
2018-12-22T19:57:52.467Z,5.41
2018-12-22T20:01:11.399Z,5.40
2018-12-22T20:04:18.491Z,5.38
2018-12-22T20:07:25.138Z,5.37
2018-12-22T20:10:45.154Z,5.38
2018-12-22T20:13:52.214Z,5.37
2018-12-22T20:17:11.262Z,5.41
2018-12-22T20:20:17.970Z,5.44
2018-12-22T20:23:24.726Z,5.45
2018-12-22T20:26:31.386Z,5.47
2018-12-22T20:29:38.163Z,5.50
2018-12-22T20:32:44.836Z,5.53
2018-12-22T20:36:03.989Z,5.53
2018-12-22T20:39:10.647Z,5.55
2018-12-22T20:42:29.517Z,5.57
2018-12-22T20:45:36.404Z,5.58
2018-12-22T20:48:43.122Z,5.58
2018-12-22T20:52:07.666Z,5.57
2018-12-22T20:55:14.321Z,5.57
2018-12-22T20:58:21.194Z,5.59
2018-12-22T21:01:40.361Z,5.58
2018-12-22T21:04:47.315Z,5.56
2018-12-22T21:07:53.998Z,5.55
2018-12-22T21:11:15.091Z,5.57
2018-12-22T21:14:21.853Z,5.56
2018-12-22T21:17:28.494Z,5.56
2018-12-22T21:20:35.153Z,5.56
2018-12-22T21:23:41.905Z,5.56
2018-12-22T21:26:49.104Z,5.57
2018-12-22T21:29:55.827Z,5.57
2018-12-22T21:33:02.379Z,5.57
2018-12-22T21:36:09.141Z,5.56
2018-12-22T21:39:16.186Z,5.55
2018-12-22T21:42:31.540Z,5.57
2018-12-22T21:45:38.465Z,5.58
2018-12-22T21:48:45.305Z,5.58
2018-12-22T21:52:00.698Z,5.58
2018-12-22T21:55:07.887Z,5.56
2018-12-22T21:58:14.757Z,5.54
2018-12-22T22:01:21.879Z,5.53
2018-12-22T22:04:36.844Z,5.52
2018-12-22T22:07:49.372Z,5.51
2018-12-22T22:10:56.027Z,5.51
2018-12-22T22:14:14.976Z,5.50
2018-12-22T22:17:21.726Z,5.50
2018-12-22T22:20:28.496Z,5.49
2018-12-22T22:23:47.541Z,5.49
2018-12-22T22:26:54.530Z,5.49
2018-12-22T22:30:01.191Z,5.50
2018-12-22T22:33:16.781Z,5.51
2018-12-22T22:36:23.417Z,5.50
2018-12-22T22:39:29.445Z,5.50
2018-12-22T22:42:36.095Z,5.50
2018-12-22T22:45:51.638Z,5.52
2018-12-22T22:48:58.503Z,5.51
2018-12-22T22:52:05.579Z,5.52
2018-12-22T22:55:12.323Z,5.51
2018-12-22T22:58:29.906Z,5.53
2018-12-22T23:01:37.058Z,5.52
2018-12-22T23:04:45.105Z,5.52
2018-12-22T23:08:00.973Z,5.51
2018-12-22T23:11:07.605Z,5.51
2018-12-22T23:14:14.138Z,5.52
2018-12-22T23:17:31.807Z,5.51
2018-12-22T23:20:38.556Z,5.50
2018-12-22T23:23:45.200Z,5.52
2018-12-22T23:26:51.842Z,5.49
2018-12-22T23:29:58.566Z,5.50
2018-12-22T23:33:05.225Z,5.51
2018-12-22T23:36:12.288Z,5.51
2018-12-22T23:39:18.929Z,5.52
2018-12-22T23:42:25.654Z,5.52
2018-12-22T23:45:32.636Z,5.52
2018-12-22T23:48:51.733Z,5.53
2018-12-22T23:51:58.594Z,5.54
2018-12-22T23:55:05.925Z,5.54
2018-12-22T23:58:12.690Z,5.57
